Time;durP1;ratioP1;P1;durP2;ratioP2;P2;SDS_P1;SDS_P2;PMS_P1;PMS_P2;Temp;Humidity;BMP_temperature;BMP_pressure;BME280_temperature;BME280_humidity;BME280_pressure;Samples;Min_cycle;Max_cycle;Signal;HPM_P1;HPM_P2
2023/04/18 00:00:26;;;;;;;15.13;10.87;;;;;;;;;;4978628;28;20441;-93
2023/04/18 00:02:53;;;;;;;12.00;10.43;;;;;;;;;;4979538;28;20436;-91
2023/04/18 00:05:20;;;;;;;13.73;10.00;;;;;;;;;;4977893;28;20437;-91
2023/04/18 00:07:46;;;;;;;15.87;10.30;;;;;;;;;;4978829;28;20435;-91
2023/04/18 00:10:12;;;;;;;15.27;10.60;;;;;;;;;;4983316;28;20464;-90
2023/04/18 00:12:38;;;;;;;16.43;10.77;;;;;;;;;;4974291;28;20477;-91
2023/04/18 00:15:06;;;;;;;20.07;10.30;;;;;;;;;;4973107;28;20525;-93
2023/04/18 00:17:32;;;;;;;15.60;10.10;;;;;;;;;;4974852;28;20795;-91
2023/04/18 00:20:01;;;;;;;13.57;9.70;;;;;;;;;;4975819;28;20460;-91
2023/04/18 00:22:27;;;;;;;17.17;11.83;;;;;;;;;;4984762;28;20441;-91
2023/04/18 00:24:53;;;;;;;16.87;11.37;;;;;;;;;;4976220;28;20437;-92
2023/04/18 00:27:19;;;;;;;15.50;10.33;;;;;;;;;;4986068;28;20507;-89
2023/04/18 00:29:46;;;;;;;18.60;11.30;;;;;;;;;;4974539;28;20437;-90
2023/04/18 00:32:12;;;;;;;12.67;10.60;;;;;;;;;;4975352;28;20460;-90
2023/04/18 00:34:39;;;;;;;14.63;10.80;;;;;;;;;;4982197;28;20456;-90
2023/04/18 00:37:05;;;;;;;16.40;11.33;;;;;;;;;;4985490;28;20432;-91
2023/04/18 00:39:31;;;;;;;17.50;10.90;;;;;;;;;;4986890;28;20495;-90
2023/04/18 00:41:57;;;;;;;17.53;10.30;;;;;;;;;;4979568;28;20447;-91
2023/04/18 00:44:23;;;;;;;14.70;10.23;;;;;;;;;;4977217;28;21068;-91
2023/04/18 00:46:49;;;;;;;13.80;10.47;;;;;;;;;;4983376;28;20440;-89
2023/04/18 00:49:15;;;;;;;15.03;11.17;;;;;;;;;;4975703;28;20445;-91
2023/04/18 00:51:41;;;;;;;15.20;11.70;;;;;;;;;;4978262;28;20437;-91
2023/04/18 00:54:07;;;;;;;14.37;11.17;;;;;;;;;;5006712;28;20523;-91
2023/04/18 00:56:34;;;;;;;13.93;10.70;;;;;;;;;;4974502;28;20514;-91
2023/04/18 00:59:02;;;;;;;19.40;11.37;;;;;;;;;;4975970;28;20458;-90
2023/04/18 01:01:28;;;;;;;14.27;10.37;;;;;;;;;;4977777;28;20433;-91
2023/04/18 01:03:54;;;;;;;15.27;10.67;;;;;;;;;;4976150;28;20440;-90
2023/04/18 01:06:21;;;;;;;12.97;10.17;;;;;;;;;;4971101;28;20430;-91
2023/04/18 01:08:47;;;;;;;14.73;10.63;;;;;;;;;;4979004;28;20995;-91
2023/04/18 01:11:13;;;;;;;13.33;9.87;;;;;;;;;;4978531;28;20477;-90
2023/04/18 01:13:39;;;;;;;14.37;10.47;;;;;;;;;;4978728;28;21018;-91
2023/04/18 01:16:05;;;;;;;12.80;10.27;;;;;;;;;;4978421;28;20421;-91
2023/04/18 01:18:33;;;;;;;15.87;11.80;;;;;;;;;;4992920;28;20421;-91
2023/04/18 01:20:59;;;;;;;13.23;10.13;;;;;;;;;;4980441;28;20436;-92
2023/04/18 01:23:28;;;;;;;16.57;11.90;;;;;;;;;;4977372;28;20563;-92
2023/04/18 01:25:54;;;;;;;15.20;9.90;;;;;;;;;;4979150;28;20441;-91
2023/04/18 01:28:21;;;;;;;15.13;10.00;;;;;;;;;;4977755;28;20535;-91
2023/04/18 01:30:47;;;;;;;18.57;11.73;;;;;;;;;;4979814;28;20515;-91
2023/04/18 01:33:14;;;;;;;17.53;11.30;;;;;;;;;;4978998;28;20456;-91
2023/04/18 01:35:40;;;;;;;14.10;11.10;;;;;;;;;;4975524;28;20501;-91
2023/04/18 01:38:06;;;;;;;15.23;10.93;;;;;;;;;;4976426;28;20424;-92
2023/04/18 01:40:32;;;;;;;14.47;10.80;;;;;;;;;;4977238;28;20441;-91
2023/04/18 01:42:58;;;;;;;13.87;10.10;;;;;;;;;;4975618;28;20444;-91
2023/04/18 01:45:24;;;;;;;15.00;9.37;;;;;;;;;;4995330;28;20437;-90
2023/04/18 01:47:50;;;;;;;17.57;11.47;;;;;;;;;;4976788;28;20532;-91
2023/04/18 01:50:16;;;;;;;13.17;10.60;;;;;;;;;;4978397;28;20452;-91
2023/04/18 01:52:42;;;;;;;20.10;10.13;;;;;;;;;;4979093;28;21162;-91
2023/04/18 01:55:08;;;;;;;12.20;9.83;;;;;;;;;;4975413;28;20460;-91
2023/04/18 01:57:37;;;;;;;15.63;10.83;;;;;;;;;;4991992;28;21531;-91
2023/04/18 02:00:06;;;;;;;14.23;9.77;;;;;;;;;;4977639;28;20798;-90
2023/04/18 02:02:32;;;;;;;13.17;10.07;;;;;;;;;;4978100;28;20446;-91
2023/04/18 02:04:58;;;;;;;15.07;9.50;;;;;;;;;;4969042;28;20475;-91
2023/04/18 02:07:24;;;;;;;13.57;9.33;;;;;;;;;;4980060;28;21441;-91
2023/04/18 02:09:50;;;;;;;13.97;10.00;;;;;;;;;;4977534;28;20502;-92
2023/04/18 02:12:16;;;;;;;14.47;10.80;;;;;;;;;;4976190;28;20442;-91
2023/04/18 02:14:42;;;;;;;14.73;10.97;;;;;;;;;;4975559;28;20425;-91
2023/04/18 02:17:08;;;;;;;15.13;10.73;;;;;;;;;;4980479;28;20441;-92
2023/04/18 02:19:34;;;;;;;13.77;9.63;;;;;;;;;;4977335;28;20980;-91
2023/04/18 02:22:00;;;;;;;13.73;10.00;;;;;;;;;;4976164;28;20437;-91
2023/04/18 02:24:26;;;;;;;14.30;10.73;;;;;;;;;;4980612;28;20420;-91
2023/04/18 02:26:52;;;;;;;16.23;10.23;;;;;;;;;;4966372;28;20437;-92
2023/04/18 02:29:18;;;;;;;20.30;11.33;;;;;;;;;;4977489;28;20992;-91
2023/04/18 02:31:44;;;;;;;14.27;10.50;;;;;;;;;;4965448;28;20449;-91
2023/04/18 02:34:10;;;;;;;12.10;9.23;;;;;;;;;;4993248;28;20910;-91
2023/04/18 02:36:36;;;;;;;15.90;11.30;;;;;;;;;;4992950;28;20434;-91
2023/04/18 02:39:02;;;;;;;14.77;9.23;;;;;;;;;;4998778;28;20471;-92
2023/04/18 02:41:28;;;;;;;13.80;8.77;;;;;;;;;;4975300;28;20433;-91
2023/04/18 02:43:54;;;;;;;14.53;10.27;;;;;;;;;;4976962;28;20445;-91
2023/04/18 02:46:20;;;;;;;16.53;11.37;;;;;;;;;;4979222;28;20973;-92
2023/04/18 02:48:46;;;;;;;13.23;9.90;;;;;;;;;;4975375;28;20476;-92
2023/04/18 02:51:12;;;;;;;14.23;9.33;;;;;;;;;;4995535;28;20456;-91
2023/04/18 02:53:38;;;;;;;14.97;9.77;;;;;;;;;;4978214;28;20449;-92
2023/04/18 02:56:04;;;;;;;14.07;10.47;;;;;;;;;;4978009;28;21035;-92
2023/04/18 02:58:33;;;;;;;14.90;9.50;;;;;;;;;;4991069;28;20428;-93
2023/04/18 03:00:59;;;;;;;13.30;9.63;;;;;;;;;;4956973;28;20430;-92
2023/04/18 03:03:25;;;;;;;13.20;9.90;;;;;;;;;;4968519;28;20450;-91
2023/04/18 03:05:51;;;;;;;14.23;9.50;;;;;;;;;;4938897;28;20438;-92
2023/04/18 03:08:17;;;;;;;11.20;8.90;;;;;;;;;;4945440;28;20464;-91
2023/04/18 03:10:43;;;;;;;17.30;9.87;;;;;;;;;;4960644;28;20489;-91
2023/04/18 03:13:09;;;;;;;13.77;10.03;;;;;;;;;;4969860;28;20481;-91
2023/04/18 03:15:35;;;;;;;13.40;8.77;;;;;;;;;;4955388;28;20999;-92
2023/04/18 03:18:01;;;;;;;11.57;9.00;;;;;;;;;;4967510;28;20429;-91
2023/04/18 03:20:27;;;;;;;11.10;9.30;;;;;;;;;;4951347;28;20449;-91
2023/04/18 03:22:53;;;;;;;12.53;9.50;;;;;;;;;;4956490;28;21009;-91
2023/04/18 03:25:19;;;;;;;11.53;8.30;;;;;;;;;;4955421;28;20457;-91
2023/04/18 03:27:45;;;;;;;16.43;9.87;;;;;;;;;;4955680;28;20441;-92
2023/04/18 03:30:12;;;;;;;10.13;8.93;;;;;;;;;;4955179;28;20485;-91
2023/04/18 03:32:38;;;;;;;15.30;10.90;;;;;;;;;;4971278;28;20461;-92
2023/04/18 03:35:04;;;;;;;12.40;8.90;;;;;;;;;;4980876;28;21286;-91
2023/04/18 03:37:30;;;;;;;16.10;9.00;;;;;;;;;;4973609;28;20422;-91
2023/04/18 03:39:56;;;;;;;12.90;11.20;;;;;;;;;;4975302;28;20561;-92
2023/04/18 03:42:22;;;;;;;13.90;9.80;;;;;;;;;;4974674;28;20461;-91
2023/04/18 03:44:48;;;;;;;9.90;8.90;;;;;;;;;;4982280;28;20425;-92
2023/04/18 03:47:14;;;;;;;15.57;10.20;;;;;;;;;;4976948;28;20440;-92
2023/04/18 03:49:40;;;;;;;12.57;8.67;;;;;;;;;;4977758;28;20537;-91
2023/04/18 03:52:06;;;;;;;12.53;9.07;;;;;;;;;;4972495;28;20444;-93
2023/04/18 03:54:32;;;;;;;10.97;8.40;;;;;;;;;;4983014;28;20465;-91
2023/04/18 03:56:58;;;;;;;18.63;10.00;;;;;;;;;;4974572;28;20560;-91
2023/04/18 03:59:24;;;;;;;14.20;9.70;;;;;;;;;;4976078;28;20421;-91
2023/04/18 04:01:50;;;;;;;16.23;11.20;;;;;;;;;;4976185;28;20425;-91
2023/04/18 04:04:16;;;;;;;16.17;11.20;;;;;;;;;;4978899;28;20984;-91
2023/04/18 04:06:42;;;;;;;15.60;9.67;;;;;;;;;;4978156;28;20429;-91
2023/04/18 04:09:08;;;;;;;13.60;11.07;;;;;;;;;;4981345;28;20535;-91
2023/04/18 04:11:34;;;;;;;13.10;9.97;;;;;;;;;;4976317;28;20525;-91
2023/04/18 04:14:01;;;;;;;12.90;8.37;;;;;;;;;;5002526;28;20539;-89
2023/04/18 04:16:27;;;;;;;16.50;10.80;;;;;;;;;;4977450;28;20428;-89
2023/04/18 04:18:53;;;;;;;16.80;10.43;;;;;;;;;;4982239;28;20432;-92
2023/04/18 04:21:19;;;;;;;16.20;11.47;;;;;;;;;;4976933;28;20477;-90
2023/04/18 04:23:45;;;;;;;19.10;9.47;;;;;;;;;;4980785;28;20438;-94
2023/04/18 04:26:13;;;;;;;16.40;10.67;;;;;;;;;;4985142;28;20768;-95
2023/04/18 04:28:39;;;;;;;19.23;10.40;;;;;;;;;;4984967;28;20878;-95
2023/04/18 04:31:08;;;;;;;16.57;10.97;;;;;;;;;;4983944;28;20534;-93
2023/04/18 04:33:37;;;;;;;11.47;9.33;;;;;;;;;;4983123;28;20463;-94
2023/04/18 04:36:07;;;;;;;19.33;11.30;;;;;;;;;;4981343;28;20435;-94
2023/04/18 04:38:51;;;;;;;15.47;10.20;;;;;;;;;;5024421;28;20444;-94
2023/04/18 04:41:17;;;;;;;13.90;10.63;;;;;;;;;;5010398;28;21033;-95
2023/04/18 04:43:45;;;;;;;16.13;10.03;;;;;;;;;;4992466;28;20449;-96
2023/04/18 04:46:12;;;;;;;12.70;10.00;;;;;;;;;;4988838;28;20454;-95
2023/04/18 04:48:38;;;;;;;14.47;10.60;;;;;;;;;;4992629;28;20465;-95
2023/04/18 04:51:05;;;;;;;16.10;10.33;;;;;;;;;;4993487;28;20463;-94
2023/04/18 04:53:31;;;;;;;14.20;9.53;;;;;;;;;;5002951;28;20469;-90
2023/04/18 04:55:58;;;;;;;17.40;11.20;;;;;;;;;;4978608;28;20421;-90
2023/04/18 04:58:24;;;;;;;13.50;9.40;;;;;;;;;;4977761;28;20460;-90
2023/04/18 05:00:51;;;;;;;13.67;10.37;;;;;;;;;;4974099;28;20432;-90
2023/04/18 05:03:17;;;;;;;19.77;10.70;;;;;;;;;;4979853;28;20609;-90
2023/04/18 05:05:43;;;;;;;15.27;10.80;;;;;;;;;;4992111;28;20460;-91
2023/04/18 05:08:09;;;;;;;15.77;9.83;;;;;;;;;;4978222;28;20533;-90
2023/04/18 05:10:35;;;;;;;17.97;10.47;;;;;;;;;;4978570;28;20566;-91
2023/04/18 05:13:02;;;;;;;17.57;12.27;;;;;;;;;;4979956;28;20475;-91
2023/04/18 05:15:28;;;;;;;16.83;9.87;;;;;;;;;;4994345;28;20447;-91
2023/04/18 05:17:54;;;;;;;14.67;10.50;;;;;;;;;;4975972;28;20532;-90
2023/04/18 05:20:20;;;;;;;19.53;12.90;;;;;;;;;;4993672;28;20430;-91
2023/04/18 05:22:46;;;;;;;16.90;12.10;;;;;;;;;;4988580;28;20440;-91
2023/04/18 05:25:12;;;;;;;14.40;10.80;;;;;;;;;;4996300;28;20917;-92
2023/04/18 05:27:38;;;;;;;13.20;10.70;;;;;;;;;;4972142;28;20565;-92
2023/04/18 05:30:05;;;;;;;19.10;10.23;;;;;;;;;;4976886;28;21180;-91
2023/04/18 05:32:31;;;;;;;18.67;10.67;;;;;;;;;;4977315;28;20434;-91
2023/04/18 05:34:57;;;;;;;15.30;11.30;;;;;;;;;;4977488;28;20459;-90
2023/04/18 05:37:23;;;;;;;18.07;11.73;;;;;;;;;;4976724;28;20468;-91
2023/04/18 05:39:49;;;;;;;15.70;11.30;;;;;;;;;;4978832;28;20433;-90
2023/04/18 05:42:15;;;;;;;16.47;10.70;;;;;;;;;;4979612;28;20437;-90
2023/04/18 05:44:40;;;;;;;16.17;10.27;;;;;;;;;;4971827;28;20441;-91
2023/04/18 05:47:06;;;;;;;18.77;12.17;;;;;;;;;;4989587;28;20439;-90
2023/04/18 05:49:33;;;;;;;14.57;10.13;;;;;;;;;;4974980;28;20469;-90
2023/04/18 05:51:59;;;;;;;12.90;10.60;;;;;;;;;;4978461;28;20433;-90
2023/04/18 05:54:25;;;;;;;14.27;10.40;;;;;;;;;;4973768;28;20980;-89
2023/04/18 05:56:51;;;;;;;17.20;11.30;;;;;;;;;;4973106;28;21054;-90
2023/04/18 05:59:17;;;;;;;12.33;9.83;;;;;;;;;;4975830;28;20439;-90
2023/04/18 06:01:43;;;;;;;13.63;11.60;;;;;;;;;;4978802;28;20433;-90
2023/04/18 06:04:09;;;;;;;14.77;10.33;;;;;;;;;;4976088;28;21188;-90
2023/04/18 06:06:35;;;;;;;14.10;10.23;;;;;;;;;;4975649;28;20931;-90
2023/04/18 06:09:01;;;;;;;14.77;10.70;;;;;;;;;;4974539;28;20571;-90
2023/04/18 06:11:27;;;;;;;16.27;12.50;;;;;;;;;;4972597;28;20445;-90
2023/04/18 06:13:54;;;;;;;15.60;11.30;;;;;;;;;;4971146;28;20457;-90
2023/04/18 06:16:21;;;;;;;16.03;9.87;;;;;;;;;;4974328;28;20436;-89
2023/04/18 06:18:47;;;;;;;17.40;10.87;;;;;;;;;;4974895;28;20437;-89
2023/04/18 06:21:13;;;;;;;17.70;12.00;;;;;;;;;;4975103;28;20958;-91
2023/04/18 06:23:39;;;;;;;15.10;11.23;;;;;;;;;;4975764;28;20429;-90
2023/04/18 06:26:06;;;;;;;14.50;11.30;;;;;;;;;;4978890;28;20813;-90
2023/04/18 06:28:32;;;;;;;13.47;10.53;;;;;;;;;;4972013;28;20430;-90
2023/04/18 06:30:58;;;;;;;15.50;10.83;;;;;;;;;;4985453;28;20441;-91
2023/04/18 06:33:24;;;;;;;12.93;10.67;;;;;;;;;;4978355;28;20461;-91
2023/04/18 06:35:50;;;;;;;14.97;11.30;;;;;;;;;;4971301;28;20445;-91
2023/04/18 06:38:16;;;;;;;16.57;9.90;;;;;;;;;;4970887;28;20998;-90
2023/04/18 06:40:42;;;;;;;17.60;11.47;;;;;;;;;;4973356;28;20430;-91
2023/04/18 06:43:08;;;;;;;11.83;8.70;;;;;;;;;;4975057;28;20939;-90
2023/04/18 06:45:34;;;;;;;16.33;11.00;;;;;;;;;;4993980;28;20445;-90
2023/04/18 06:48:02;;;;;;;14.60;9.87;;;;;;;;;;4984980;28;20996;-91
2023/04/18 06:50:28;;;;;;;14.30;10.70;;;;;;;;;;4991245;28;20779;-91
2023/04/18 06:52:54;;;;;;;16.43;11.13;;;;;;;;;;4997007;28;20461;-90
2023/04/18 06:55:20;;;;;;;13.77;10.00;;;;;;;;;;4994224;28;20439;-91
2023/04/18 06:57:46;;;;;;;10.90;8.50;;;;;;;;;;4979622;28;20433;-92
2023/04/18 07:00:12;;;;;;;10.80;9.40;;;;;;;;;;4977307;28;20492;-91
2023/04/18 07:02:39;;;;;;;13.47;9.97;;;;;;;;;;4973815;28;20413;-91
2023/04/18 07:05:05;;;;;;;12.70;10.10;;;;;;;;;;4972998;28;20483;-91
2023/04/18 07:07:31;;;;;;;12.13;9.20;;;;;;;;;;4975636;28;20465;-91
2023/04/18 07:09:57;;;;;;;14.70;9.60;;;;;;;;;;4979639;28;20462;-91
2023/04/18 07:12:24;;;;;;;14.30;10.03;;;;;;;;;;4978179;28;20511;-90
2023/04/18 07:14:50;;;;;;;16.83;10.93;;;;;;;;;;4993810;28;20745;-90
2023/04/18 07:17:16;;;;;;;16.07;11.07;;;;;;;;;;4974827;28;20920;-91
2023/04/18 07:19:42;;;;;;;13.57;10.73;;;;;;;;;;4978643;28;20949;-91
2023/04/18 07:22:08;;;;;;;14.23;10.63;;;;;;;;;;4975704;28;20506;-91
2023/04/18 07:24:35;;;;;;;15.77;10.63;;;;;;;;;;4982040;28;20547;-90
2023/04/18 07:27:02;;;;;;;16.60;10.30;;;;;;;;;;4990597;28;20433;-92
2023/04/18 07:29:28;;;;;;;16.23;12.10;;;;;;;;;;4990705;28;20420;-91
2023/04/18 07:31:54;;;;;;;14.23;10.50;;;;;;;;;;4976005;28;20451;-91
2023/04/18 07:34:21;;;;;;;13.37;10.43;;;;;;;;;;4971814;28;20457;-91
2023/04/18 07:36:47;;;;;;;11.80;9.77;;;;;;;;;;4969929;28;20441;-91
2023/04/18 07:39:13;;;;;;;14.60;10.30;;;;;;;;;;5008837;28;20464;-92
2023/04/18 07:41:39;;;;;;;14.60;10.27;;;;;;;;;;4988584;28;20430;-91
2023/04/18 07:44:05;;;;;;;17.00;9.53;;;;;;;;;;4981119;28;20438;-91
2023/04/18 07:46:32;;;;;;;16.90;10.73;;;;;;;;;;4981188;28;20436;-91
2023/04/18 07:48:58;;;;;;;14.30;8.87;;;;;;;;;;4981506;28;20517;-91
2023/04/18 07:51:30;;;;;;;17.97;10.17;;;;;;;;;;4980087;28;20523;-89
2023/04/18 07:53:56;;;;;;;14.33;10.17;;;;;;;;;;4977959;28;20452;-89
2023/04/18 07:56:22;;;;;;;15.40;10.70;;;;;;;;;;4995225;28;21158;-89
2023/04/18 07:58:48;;;;;;;15.43;10.87;;;;;;;;;;4986192;28;20433;-90
2023/04/18 08:01:17;;;;;;;15.20;9.77;;;;;;;;;;4980102;28;20936;-89
2023/04/18 08:03:43;;;;;;;14.73;10.60;;;;;;;;;;4978575;28;20434;-89
2023/04/18 08:06:09;;;;;;;15.00;9.37;;;;;;;;;;4992820;28;20463;-89
2023/04/18 08:08:35;;;;;;;13.63;10.30;;;;;;;;;;4977941;28;20487;-89
2023/04/18 08:11:01;;;;;;;14.60;9.70;;;;;;;;;;4990540;28;20445;-89
2023/04/18 08:13:27;;;;;;;13.87;10.80;;;;;;;;;;4973490;28;20452;-89
2023/04/18 08:15:54;;;;;;;14.13;10.03;;;;;;;;;;4978693;28;20456;-89
2023/04/18 08:18:21;;;;;;;17.53;10.97;;;;;;;;;;4977235;28;20433;-89
2023/04/18 08:20:47;;;;;;;14.90;10.07;;;;;;;;;;4996311;28;20516;-89
2023/04/18 08:23:13;;;;;;;13.30;8.90;;;;;;;;;;4984260;28;20468;-88
2023/04/18 08:25:40;;;;;;;13.60;10.10;;;;;;;;;;4991281;28;20432;-89
2023/04/18 08:28:05;;;;;;;14.17;9.80;;;;;;;;;;4980632;28;20440;-89
2023/04/18 08:30:32;;;;;;;14.00;10.20;;;;;;;;;;4981338;28;20414;-89
2023/04/18 08:33:01;;;;;;;13.53;9.10;;;;;;;;;;4978143;28;20823;-90
2023/04/18 08:35:27;;;;;;;12.27;9.63;;;;;;;;;;4974479;28;20433;-89
2023/04/18 08:37:53;;;;;;;16.37;9.20;;;;;;;;;;4991804;28;20489;-89
2023/04/18 08:40:19;;;;;;;14.97;10.40;;;;;;;;;;4979478;28;20427;-90
2023/04/18 08:42:45;;;;;;;11.43;8.63;;;;;;;;;;4991723;28;20607;-89
2023/04/18 08:45:15;;;;;;;16.80;11.33;;;;;;;;;;4978570;28;20467;-89
2023/04/18 08:47:41;;;;;;;12.57;10.20;;;;;;;;;;4980108;28;20429;-89
2023/04/18 08:50:08;;;;;;;15.97;10.80;;;;;;;;;;4976796;28;20519;-89
2023/04/18 08:52:34;;;;;;;13.30;9.83;;;;;;;;;;4999226;28;20436;-89
2023/04/18 08:55:03;;;;;;;13.60;9.70;;;;;;;;;;4978779;28;20479;-89
2023/04/18 08:57:29;;;;;;;15.97;10.50;;;;;;;;;;4975829;28;20968;-89
2023/04/18 08:59:56;;;;;;;16.23;9.67;;;;;;;;;;4997124;28;20442;-90
2023/04/18 09:02:22;;;;;;;12.50;9.80;;;;;;;;;;4977450;28;20474;-89
2023/04/18 09:04:51;;;;;;;16.30;10.57;;;;;;;;;;4978399;28;20448;-89
2023/04/18 09:07:20;;;;;;;15.10;10.90;;;;;;;;;;4977558;28;20429;-89
2023/04/18 09:09:47;;;;;;;15.30;10.47;;;;;;;;;;4971770;28;20431;-88
2023/04/18 09:12:14;;;;;;;15.30;11.03;;;;;;;;;;4983922;28;20454;-89
2023/04/18 09:14:44;;;;;;;13.63;10.27;;;;;;;;;;4973300;28;20500;-88
2023/04/18 09:17:17;;;;;;;12.37;9.27;;;;;;;;;;4983150;28;20434;-89
2023/04/18 09:19:47;;;;;;;12.57;8.87;;;;;;;;;;4977296;28;20433;-88
2023/04/18 09:22:13;;;;;;;13.60;9.37;;;;;;;;;;4991314;28;20430;-89
2023/04/18 09:24:39;;;;;;;13.13;10.53;;;;;;;;;;4990136;28;20995;-89
2023/04/18 09:27:05;;;;;;;22.53;9.73;;;;;;;;;;4974572;28;20519;-88
2023/04/18 09:29:42;;;;;;;14.27;9.80;;;;;;;;;;4969860;28;20952;-91
2023/04/18 09:32:08;;;;;;;13.80;10.97;;;;;;;;;;4988239;28;20445;-90
2023/04/18 09:34:37;;;;;;;11.43;9.53;;;;;;;;;;4992650;28;20544;-89
2023/04/18 09:37:06;;;;;;;16.10;10.60;;;;;;;;;;4978154;28;20436;-89
2023/04/18 09:39:32;;;;;;;13.50;10.13;;;;;;;;;;4991743;28;20425;-89
2023/04/18 09:41:58;;;;;;;15.60;11.23;;;;;;;;;;4986471;28;20480;-89
2023/04/18 09:44:25;;;;;;;13.50;11.33;;;;;;;;;;4976996;28;20439;-89
2023/04/18 09:46:51;;;;;;;16.07;10.73;;;;;;;;;;4976614;28;20471;-89
2023/04/18 09:49:17;;;;;;;16.10;11.37;;;;;;;;;;4971070;28;20435;-87
2023/04/18 09:51:43;;;;;;;13.23;11.27;;;;;;;;;;4973985;28;20442;-89
2023/04/18 09:54:15;;;;;;;15.37;10.23;;;;;;;;;;4970375;28;20483;-88
2023/04/18 09:56:45;;;;;;;16.87;10.70;;;;;;;;;;4974990;28;20496;-89
2023/04/18 09:59:11;;;;;;;13.17;9.57;;;;;;;;;;4977619;28;20443;-89
2023/04/18 10:01:37;;;;;;;12.70;10.33;;;;;;;;;;4986385;28;20506;-88
2023/04/18 10:04:05;;;;;;;13.93;10.03;;;;;;;;;;4976658;28;20515;-88
2023/04/18 10:06:33;;;;;;;12.73;9.93;;;;;;;;;;4973706;28;20540;-88
2023/04/18 10:08:59;;;;;;;13.60;9.93;;;;;;;;;;5009499;28;20730;-89
2023/04/18 10:11:25;;;;;;;13.80;10.47;;;;;;;;;;4979036;28;20444;-89
2023/04/18 10:13:53;;;;;;;12.33;10.47;;;;;;;;;;4980225;28;20476;-90
2023/04/18 10:16:19;;;;;;;12.37;8.93;;;;;;;;;;4978908;28;20539;-89
2023/04/18 10:18:45;;;;;;;13.23;8.63;;;;;;;;;;4988956;28;20929;-89
2023/04/18 10:21:11;;;;;;;11.90;9.77;;;;;;;;;;4974972;28;20431;-87
2023/04/18 10:23:37;;;;;;;13.10;9.20;;;;;;;;;;4971619;28;20469;-88
2023/04/18 10:26:04;;;;;;;15.53;9.03;;;;;;;;;;4968515;28;20434;-88
2023/04/18 10:28:58;;;;;;;10.73;8.20;;;;;;;;;;4974481;28;21189;-87
2023/04/18 10:31:25;;;;;;;12.33;8.60;;;;;;;;;;4992183;28;20428;-88
2023/04/18 10:33:57;;;;;;;11.00;8.30;;;;;;;;;;4969361;28;20441;-88
2023/04/18 10:36:23;;;;;;;13.93;8.17;;;;;;;;;;4997380;28;20430;-89
2023/04/18 10:38:50;;;;;;;10.30;8.43;;;;;;;;;;4970388;28;20488;-88
2023/04/18 10:41:16;;;;;;;11.47;8.73;;;;;;;;;;4971553;28;20436;-88
2023/04/18 10:44:00;;;;;;;11.27;7.93;;;;;;;;;;4986198;28;20426;-88
2023/04/18 10:46:27;;;;;;;13.93;9.37;;;;;;;;;;4993765;28;20429;-88
2023/04/18 10:49:11;;;;;;;11.50;8.93;;;;;;;;;;4992430;28;20535;-88
2023/04/18 10:51:37;;;;;;;9.73;8.60;;;;;;;;;;4994543;28;20425;-88
2023/04/18 10:54:03;;;;;;;9.80;7.80;;;;;;;;;;4972517;28;20510;-88
2023/04/18 10:56:29;;;;;;;9.73;7.40;;;;;;;;;;4971809;28;20458;-88
2023/04/18 10:58:55;;;;;;;11.10;8.23;;;;;;;;;;5002429;28;20467;-88
2023/04/18 11:01:26;;;;;;;7.50;6.80;;;;;;;;;;4974868;28;20469;-88
2023/04/18 11:03:53;;;;;;;9.37;6.50;;;;;;;;;;4988169;28;21018;-88
2023/04/18 11:06:19;;;;;;;10.10;7.57;;;;;;;;;;4973457;28;20421;-88
2023/04/18 11:08:45;;;;;;;10.30;7.40;;;;;;;;;;4974897;28;20455;-88
2023/04/18 11:11:11;;;;;;;8.60;7.50;;;;;;;;;;4978612;28;20899;-88
2023/04/18 11:13:37;;;;;;;9.13;7.10;;;;;;;;;;4976782;28;20495;-88
2023/04/18 11:16:03;;;;;;;9.53;8.23;;;;;;;;;;4991228;28;20868;-88
2023/04/18 11:18:40;;;;;;;7.90;6.83;;;;;;;;;;4975919;28;20439;-88
2023/04/18 11:21:06;;;;;;;10.33;7.50;;;;;;;;;;4977676;28;20465;-88
2023/04/18 11:23:32;;;;;;;9.40;6.83;;;;;;;;;;4975787;28;20431;-88
2023/04/18 11:25:58;;;;;;;9.37;6.50;;;;;;;;;;4975610;28;20436;-88
2023/04/18 11:28:24;;;;;;;8.50;7.30;;;;;;;;;;4991779;28;20421;-88
2023/04/18 11:30:50;;;;;;;8.13;6.63;;;;;;;;;;4974302;28;20512;-88
2023/04/18 11:33:16;;;;;;;7.17;6.07;;;;;;;;;;4989095;28;20460;-89
2023/04/18 11:35:43;;;;;;;9.00;6.73;;;;;;;;;;4977230;28;20477;-88
2023/04/18 11:38:12;;;;;;;7.30;5.80;;;;;;;;;;4976503;28;20520;-89
2023/04/18 11:40:38;;;;;;;8.03;5.40;;;;;;;;;;4978053;28;20925;-89
2023/04/18 11:43:06;;;;;;;8.10;5.93;;;;;;;;;;4976517;28;20416;-89
2023/04/18 11:45:32;;;;;;;8.23;5.97;;;;;;;;;;4976689;28;20432;-87
2023/04/18 11:47:59;;;;;;;7.97;5.40;;;;;;;;;;4974261;28;20448;-88
2023/04/18 11:50:25;;;;;;;7.73;5.60;;;;;;;;;;4972745;28;21112;-85
2023/04/18 11:52:52;;;;;;;5.90;4.90;;;;;;;;;;4984664;28;20504;-89
2023/04/18 11:55:23;;;;;;;7.97;6.30;;;;;;;;;;4973307;28;20437;-89
2023/04/18 11:57:59;;;;;;;6.43;5.13;;;;;;;;;;4975912;28;20425;-88
2023/04/18 12:00:32;;;;;;;8.60;5.80;;;;;;;;;;4974073;28;20944;-88
2023/04/18 12:02:58;;;;;;;9.10;5.90;;;;;;;;;;4978861;28;20445;-89
2023/04/18 12:05:34;;;;;;;7.60;5.77;;;;;;;;;;5005621;28;20439;-89
2023/04/18 12:08:10;;;;;;;8.60;6.47;;;;;;;;;;4987622;28;20818;-89
2023/04/18 12:10:37;;;;;;;9.30;6.50;;;;;;;;;;4989082;28;20429;-88
2023/04/18 12:13:05;;;;;;;8.03;7.23;;;;;;;;;;4975750;28;20453;-89
2023/04/18 12:15:32;;;;;;;10.10;6.73;;;;;;;;;;4978119;28;20433;-88
2023/04/18 12:18:02;;;;;;;8.23;7.33;;;;;;;;;;4994356;28;20413;-89
2023/04/18 12:20:38;;;;;;;8.73;6.73;;;;;;;;;;4976177;28;20426;-89
2023/04/18 12:23:07;;;;;;;11.70;7.10;;;;;;;;;;4976303;28;20437;-89
2023/04/18 12:25:33;;;;;;;9.73;7.00;;;;;;;;;;4990741;28;20432;-88
2023/04/18 12:28:03;;;;;;;8.97;6.70;;;;;;;;;;4976795;28;20433;-89
2023/04/18 12:30:30;;;;;;;9.87;7.23;;;;;;;;;;4980679;28;20984;-89
2023/04/18 12:32:57;;;;;;;10.90;6.27;;;;;;;;;;5002018;28;20472;-90
2023/04/18 12:35:23;;;;;;;8.17;5.43;;;;;;;;;;4978268;28;20445;-89
2023/04/18 12:37:51;;;;;;;8.50;6.20;;;;;;;;;;4982350;28;20429;-89
2023/04/18 12:40:20;;;;;;;7.83;5.50;;;;;;;;;;4980633;28;20424;-89
2023/04/18 12:42:47;;;;;;;6.20;5.50;;;;;;;;;;4988859;28;20419;-89
2023/04/18 12:45:13;;;;;;;7.00;5.50;;;;;;;;;;4978460;28;20437;-89
2023/04/18 12:47:43;;;;;;;37.90;6.60;;;;;;;;;;4991776;28;20945;-90
2023/04/18 12:50:09;;;;;;;5.90;5.07;;;;;;;;;;4991259;28;20898;-89
2023/04/18 12:52:37;;;;;;;7.20;5.30;;;;;;;;;;4977602;28;20433;-89
2023/04/18 12:55:03;;;;;;;6.80;4.80;;;;;;;;;;4981402;28;20434;-89
2023/04/18 12:57:30;;;;;;;5.63;4.50;;;;;;;;;;4995358;28;20424;-89
2023/04/18 12:59:56;;;;;;;6.53;5.33;;;;;;;;;;4974892;28;20414;-90
2023/04/18 13:02:22;;;;;;;7.97;4.53;;;;;;;;;;4982181;28;20413;-89
2023/04/18 13:04:50;;;;;;;6.10;5.20;;;;;;;;;;4971832;28;20433;-89
2023/04/18 13:07:16;;;;;;;6.83;4.83;;;;;;;;;;4998190;28;20428;-89
2023/04/18 13:09:42;;;;;;;5.97;4.93;;;;;;;;;;4976741;28;20832;-88
2023/04/18 13:12:08;;;;;;;5.70;4.60;;;;;;;;;;4982498;28;20444;-89
2023/04/18 13:14:34;;;;;;;5.37;4.27;;;;;;;;;;4978997;28;20460;-90
2023/04/18 13:17:00;;;;;;;5.50;3.87;;;;;;;;;;4982901;28;20425;-90
2023/04/18 13:19:26;;;;;;;4.97;4.30;;;;;;;;;;4999563;28;20425;-89
2023/04/18 13:21:52;;;;;;;5.40;3.83;;;;;;;;;;4997774;28;20433;-90
2023/04/18 13:24:21;;;;;;;5.20;4.27;;;;;;;;;;4976315;28;20433;-91
2023/04/18 13:26:47;;;;;;;6.40;4.40;;;;;;;;;;4983105;28;20475;-89
2023/04/18 13:29:13;;;;;;;5.90;4.33;;;;;;;;;;4996619;28;20421;-89
2023/04/18 13:31:40;;;;;;;8.67;4.87;;;;;;;;;;4977327;28;20959;-90
2023/04/18 13:34:06;;;;;;;5.30;3.70;;;;;;;;;;4995092;28;20453;-90
2023/04/18 13:36:33;;;;;;;4.73;3.90;;;;;;;;;;4983842;28;20420;-93
2023/04/18 13:38:59;;;;;;;5.80;4.73;;;;;;;;;;4976512;28;20713;-91
2023/04/18 13:41:26;;;;;;;6.17;4.27;;;;;;;;;;4978518;28;20821;-90
2023/04/18 13:43:52;;;;;;;5.90;4.50;;;;;;;;;;4977264;28;20440;-86
2023/04/18 13:46:20;;;;;;;3.90;3.50;;;;;;;;;;4976738;28;20520;-88
2023/04/18 13:48:46;;;;;;;5.07;3.80;;;;;;;;;;5000169;28;20456;-87
2023/04/18 13:51:12;;;;;;;7.10;3.60;;;;;;;;;;4974875;28;20543;-88
2023/04/18 13:53:38;;;;;;;4.63;4.10;;;;;;;;;;4978552;28;20473;-89
2023/04/18 13:56:05;;;;;;;4.70;3.60;;;;;;;;;;4977093;28;20452;-88
2023/04/18 13:58:31;;;;;;;4.90;4.20;;;;;;;;;;4973615;28;20453;-88
2023/04/18 14:01:07;;;;;;;5.70;3.87;;;;;;;;;;4997272;28;20518;-94
2023/04/18 14:03:36;;;;;;;6.37;4.37;;;;;;;;;;5002419;28;20420;-93
2023/04/18 14:06:06;;;;;;;4.30;3.67;;;;;;;;;;4986235;28;20488;-93
2023/04/18 14:08:33;;;;;;;5.00;3.60;;;;;;;;;;4985982;28;20459;-95
2023/04/18 14:10:59;;;;;;;4.90;3.80;;;;;;;;;;4982552;28;20421;-93
2023/04/18 14:13:36;;;;;;;4.53;3.47;;;;;;;;;;4983675;28;20495;-92
2023/04/18 14:16:05;;;;;;;6.43;4.17;;;;;;;;;;4986006;28;20436;-93
2023/04/18 14:18:35;;;;;;;4.17;3.57;;;;;;;;;;4983822;28;20448;-93
2023/04/18 14:29:18;;;;;;;5.57;3.50;;;;;;;;;;5046884;23;20499;-93
2023/04/18 14:31:44;;;;;;;4.67;3.37;;;;;;;;;;4980409;28;20830;-94